createdAt,value
2019-03-13T14:27:28.695Z,2.53
2019-03-13T14:29:56.080Z,2.07
2019-03-13T14:32:23.508Z,2.30
2019-03-13T14:34:51.235Z,2.77
2019-03-13T14:37:18.830Z,2.17
2019-03-13T14:39:46.485Z,2.90
2019-03-13T14:42:14.114Z,2.20
2019-03-13T14:44:41.514Z,1.87
2019-03-13T14:47:08.807Z,2.50
2019-03-13T14:49:36.145Z,2.27
2019-03-13T14:52:04.124Z,2.23
2019-03-13T14:54:31.523Z,2.83
2019-03-13T14:56:59.124Z,2.47
2019-03-13T14:59:26.439Z,2.07
2019-03-13T15:01:53.910Z,2.40
2019-03-13T15:04:21.344Z,2.17
2019-03-13T15:06:48.833Z,2.60
2019-03-13T15:09:16.782Z,2.30
2019-03-13T15:11:44.255Z,1.87
2019-03-13T15:14:11.579Z,2.40
2019-03-13T15:16:39.020Z,2.67
2019-03-13T15:19:06.604Z,2.30
2019-03-13T15:21:34.175Z,2.10
2019-03-13T15:24:01.562Z,2.70
2019-03-13T15:26:29.147Z,2.37
2019-03-13T15:28:56.552Z,2.07
2019-03-13T15:31:23.831Z,2.63
2019-03-13T15:33:51.710Z,2.53
2019-03-13T15:36:19.024Z,3.83
2019-03-13T15:38:46.341Z,3.00
2019-03-13T15:41:13.772Z,3.10
2019-03-13T15:43:41.047Z,3.27
2019-03-13T15:46:08.369Z,3.23
2019-03-13T15:48:36.056Z,2.80
2019-03-13T15:51:03.496Z,2.97
2019-03-13T15:53:31.016Z,1.83
2019-03-13T15:55:58.537Z,3.10
2019-03-13T15:58:25.985Z,2.13
2019-03-13T16:00:57.904Z,3.77
2019-03-13T16:03:28.356Z,3.07
2019-03-13T16:05:55.675Z,2.40
2019-03-13T16:08:23.120Z,3.20
2019-03-13T16:10:50.473Z,2.37
2019-03-13T16:13:18.172Z,2.83
2019-03-13T16:15:46.350Z,3.80
2019-03-13T16:18:13.858Z,3.07
2019-03-13T16:20:41.238Z,2.93
2019-03-13T16:23:08.704Z,2.80
2019-03-13T16:25:36.705Z,3.50
2019-03-13T16:28:04.310Z,5.07
2019-03-13T16:30:35.061Z,3.80
2019-03-13T16:33:02.378Z,4.07
2019-03-13T16:35:29.779Z,3.77
2019-03-13T16:37:57.129Z,3.07
2019-03-13T16:40:24.611Z,4.13
2019-03-13T16:42:51.984Z,3.67
2019-03-13T16:45:19.791Z,3.00
2019-03-13T16:47:47.121Z,3.60
2019-03-13T16:50:15.248Z,2.80
2019-03-13T16:52:42.582Z,3.67
2019-03-13T16:55:12.578Z,3.27
2019-03-13T16:57:40.011Z,3.90
2019-03-13T17:00:11.158Z,3.97
2019-03-13T17:02:42.023Z,3.23
2019-03-13T17:05:11.040Z,3.30
2019-03-13T17:07:38.372Z,4.00
2019-03-13T17:10:06.635Z,3.10
2019-03-13T17:12:34.030Z,3.63
2019-03-13T17:15:01.883Z,3.73
2019-03-13T17:17:29.901Z,4.40
2019-03-13T17:19:57.340Z,4.80
2019-03-13T17:22:25.013Z,4.53
2019-03-13T17:24:53.008Z,3.57
2019-03-13T17:27:20.700Z,3.77
2019-03-13T17:29:48.065Z,3.70
2019-03-13T17:32:16.008Z,3.77
2019-03-13T17:34:43.364Z,4.77
2019-03-13T17:37:10.820Z,4.50
2019-03-13T17:39:38.306Z,4.43
2019-03-13T17:42:05.643Z,4.33
2019-03-13T17:44:33.283Z,5.87
2019-03-13T17:47:00.902Z,5.00
2019-03-13T17:49:36.017Z,4.00
2019-03-13T17:52:03.686Z,4.70
2019-03-13T17:54:31.078Z,4.47
2019-03-13T17:56:58.765Z,4.83
2019-03-13T17:59:26.064Z,4.43
2019-03-13T18:01:53.475Z,4.17
2019-03-13T18:04:20.822Z,4.23
2019-03-13T18:06:48.482Z,4.00
2019-03-13T18:09:15.903Z,5.30
2019-03-13T18:11:43.251Z,5.10
2019-03-13T18:14:10.945Z,4.47
2019-03-13T18:16:38.363Z,4.37
2019-03-13T18:19:05.669Z,4.07
2019-03-13T18:21:33.281Z,4.00
2019-03-13T18:24:00.685Z,3.83
2019-03-13T18:26:29.669Z,3.80
2019-03-13T18:28:59.085Z,3.83
2019-03-13T18:31:26.363Z,4.40
2019-03-13T18:33:54.029Z,3.43
2019-03-13T18:36:21.718Z,5.70
2019-03-13T18:38:49.452Z,3.70
2019-03-13T18:41:16.857Z,3.60
2019-03-13T18:43:44.576Z,4.10
2019-03-13T18:46:11.948Z,3.50
2019-03-13T18:48:39.280Z,3.73
2019-03-13T18:51:06.657Z,3.90
2019-03-13T18:53:33.966Z,4.47
2019-03-13T18:56:01.642Z,4.80
2019-03-13T18:58:29.337Z,3.30
2019-03-13T19:00:58.260Z,4.67
2019-03-13T19:03:26.038Z,3.80
2019-03-13T19:05:54.880Z,3.47
2019-03-13T19:08:22.373Z,4.07
2019-03-13T19:10:49.761Z,4.33
2019-03-13T19:13:17.199Z,3.97
2019-03-13T19:15:44.629Z,4.27
2019-03-13T19:18:12.352Z,4.17
2019-03-13T19:20:39.781Z,4.10
2019-03-13T19:23:07.157Z,5.43
2019-03-13T19:25:34.839Z,5.40
2019-03-13T19:28:02.179Z,4.60
2019-03-13T19:30:29.834Z,3.83
2019-03-13T19:32:57.658Z,4.00
2019-03-13T19:35:25.095Z,4.07
2019-03-13T19:37:53.360Z,3.93
2019-03-13T19:40:20.801Z,5.07
2019-03-13T19:42:48.228Z,3.67
2019-03-13T19:45:21.018Z,4.10
2019-03-13T19:47:48.368Z,4.03
2019-03-13T19:50:15.778Z,4.30
2019-03-13T19:52:43.383Z,3.80
2019-03-13T19:55:11.552Z,5.07
2019-03-13T19:57:38.873Z,4.57
2019-03-13T20:00:09.583Z,4.53
2019-03-13T20:02:37.002Z,4.33
2019-03-13T20:05:04.868Z,4.10
2019-03-13T20:07:32.894Z,4.23
2019-03-13T20:10:00.666Z,3.57
2019-03-13T20:12:28.461Z,4.80
2019-03-13T20:14:56.023Z,5.10
2019-03-13T20:17:23.317Z,4.33
2019-03-13T20:19:52.287Z,4.67
2019-03-13T20:22:22.678Z,5.07
2019-03-13T20:24:49.263Z,5.10
2019-03-13T20:27:16.710Z,4.87
2019-03-13T20:29:44.168Z,4.47
2019-03-13T20:32:11.942Z,3.07
2019-03-13T20:34:39.875Z,2.10
2019-03-13T20:37:07.439Z,2.40
2019-03-13T20:39:34.950Z,2.80
2019-03-13T20:42:02.513Z,2.60
2019-03-13T20:44:30.247Z,3.23
2019-03-13T20:46:57.770Z,2.60
2019-03-13T20:49:25.198Z,2.53
2019-03-13T20:51:52.547Z,2.30
2019-03-13T20:54:20.008Z,2.90
2019-03-13T20:56:47.412Z,3.30
2019-03-13T20:59:15.165Z,3.13
2019-03-13T21:01:42.665Z,2.70
2019-03-13T21:04:10.094Z,3.43
2019-03-13T21:06:37.458Z,3.77
2019-03-13T21:09:05.483Z,4.07
2019-03-13T21:11:33.315Z,3.57
2019-03-13T21:14:00.693Z,3.77
2019-03-13T21:16:28.103Z,4.33
2019-03-13T21:18:55.425Z,3.93
2019-03-13T21:21:26.406Z,3.40
2019-03-13T21:23:54.075Z,2.80
2019-03-13T21:26:21.778Z,4.13
2019-03-13T21:28:49.122Z,3.73
2019-03-13T21:31:16.895Z,3.27
2019-03-13T21:33:44.318Z,2.97
2019-03-13T21:36:11.652Z,4.40
2019-03-13T21:38:39.310Z,3.60
2019-03-13T21:41:07.185Z,3.07
2019-03-13T21:43:34.928Z,3.60
2019-03-13T21:46:02.582Z,3.47
2019-03-13T21:48:30.063Z,3.27
2019-03-13T21:50:57.480Z,4.10
2019-03-13T21:53:27.492Z,2.57
2019-03-13T21:55:55.483Z,3.10
2019-03-13T21:58:25.756Z,4.10
2019-03-13T22:00:53.500Z,3.43
2019-03-13T22:03:28.796Z,3.57
2019-03-13T22:05:50.769Z,3.10
2019-03-13T22:08:18.528Z,3.10
2019-03-13T22:10:46.444Z,3.17
2019-03-13T22:13:14.084Z,3.50
2019-03-13T22:15:41.519Z,3.00
2019-03-13T22:18:09.014Z,3.73
2019-03-13T22:20:36.556Z,3.17
2019-03-13T22:23:03.936Z,2.77
2019-03-13T22:25:31.712Z,4.27
2019-03-13T22:27:59.499Z,2.57
2019-03-13T22:30:28.800Z,2.87
2019-03-13T22:32:56.090Z,3.20
2019-03-13T22:35:23.719Z,2.90
2019-03-13T22:37:51.127Z,2.80
2019-03-13T22:40:18.748Z,3.33
2019-03-13T22:42:47.066Z,3.80
2019-03-13T22:45:14.937Z,3.00
2019-03-13T22:47:43.348Z,3.10
2019-03-13T22:50:15.633Z,3.10
2019-03-13T22:52:45.592Z,2.60
2019-03-13T22:55:13.345Z,3.97
2019-03-13T22:57:42.394Z,2.60
2019-03-13T23:00:47.991Z,2.40
2019-03-13T23:03:16.551Z,2.67
2019-03-13T23:05:44.361Z,3.00
2019-03-13T23:08:12.635Z,4.03
2019-03-13T23:10:41.092Z,3.93
2019-03-13T23:13:08.444Z,2.80
2019-03-13T23:15:35.741Z,3.03
2019-03-13T23:18:03.135Z,2.93
2019-03-13T23:20:30.539Z,3.20
2019-03-13T23:22:57.869Z,3.13
2019-03-13T23:25:25.219Z,2.70
2019-03-13T23:27:52.612Z,2.97
2019-03-13T23:30:19.933Z,2.70
2019-03-13T23:32:47.355Z,2.97
2019-03-13T23:35:14.785Z,3.47
2019-03-13T23:37:42.090Z,2.83
2019-03-13T23:40:09.791Z,2.57
2019-03-13T23:42:37.095Z,3.03
2019-03-13T23:45:04.800Z,3.23
2019-03-13T23:47:32.102Z,3.07
2019-03-13T23:49:59.518Z,2.80
2019-03-13T23:52:26.927Z,4.03
2019-03-13T23:54:54.260Z,3.30
2019-03-13T23:57:21.964Z,2.47
2019-03-13T23:59:49.275Z,3.37
